sensor_id;sensor_type;location;lat;lon;timestamp;noise_LAeq;noise_LA_min;noise_LA_max;noise_LA01;noise_LA95
72805;Laerm;60920;48.748;19.142;2023-09-19T00:00:05;32.72;31.43;34.24;;
72805;Laerm;60920;48.748;19.142;2023-09-19T00:02:31;32.79;31.34;34.28;;
72805;Laerm;60920;48.748;19.142;2023-09-19T00:04:58;32.89;31.17;34.31;;
72805;Laerm;60920;48.748;19.142;2023-09-19T00:07:23;32.76;31.08;34.09;;
72805;Laerm;60920;48.748;19.142;2023-09-19T00:09:48;32.82;31.31;34.12;;
72805;Laerm;60920;48.748;19.142;2023-09-19T00:12:13;32.88;31.30;34.36;;
72805;Laerm;60920;48.748;19.142;2023-09-19T00:14:39;32.86;31.29;34.22;;
72805;Laerm;60920;48.748;19.142;2023-09-19T00:17:05;32.85;31.30;34.10;;
72805;Laerm;60920;48.748;19.142;2023-09-19T00:19:36;32.79;31.38;34.02;;
72805;Laerm;60920;48.748;19.142;2023-09-19T00:22:02;32.79;31.18;34.10;;
72805;Laerm;60920;48.748;19.142;2023-09-19T00:24:28;32.78;31.07;34.31;;
72805;Laerm;60920;48.748;19.142;2023-09-19T00:26:53;32.84;31.47;34.37;;
72805;Laerm;60920;48.748;19.142;2023-09-19T00:29:20;32.86;31.13;34.13;;
72805;Laerm;60920;48.748;19.142;2023-09-19T00:31:46;32.66;31.27;34.16;;
72805;Laerm;60920;48.748;19.142;2023-09-19T00:34:11;32.73;31.29;34.13;;
72805;Laerm;60920;48.748;19.142;2023-09-19T00:36:37;32.74;31.30;33.99;;
72805;Laerm;60920;48.748;19.142;2023-09-19T00:39:04;32.77;31.37;34.04;;
72805;Laerm;60920;48.748;19.142;2023-09-19T00:41:31;32.70;30.89;33.97;;
72805;Laerm;60920;48.748;19.142;2023-09-19T00:43:56;32.68;31.29;34.14;;
72805;Laerm;60920;48.748;19.142;2023-09-19T00:46:21;32.65;31.32;33.96;;
72805;Laerm;60920;48.748;19.142;2023-09-19T00:48:47;32.69;31.16;34.11;;
72805;Laerm;60920;48.748;19.142;2023-09-19T00:51:13;32.80;31.43;34.24;;
72805;Laerm;60920;48.748;19.142;2023-09-19T00:53:39;32.85;31.29;34.29;;
72805;Laerm;60920;48.748;19.142;2023-09-19T00:56:04;32.81;31.35;34.31;;
72805;Laerm;60920;48.748;19.142;2023-09-19T00:58:33;32.76;31.33;34.14;;
72805;Laerm;60920;48.748;19.142;2023-09-19T01:01:00;32.73;31.29;34.28;;
72805;Laerm;60920;48.748;19.142;2023-09-19T01:03:26;32.70;31.46;34.04;;
72805;Laerm;60920;48.748;19.142;2023-09-19T01:05:52;32.73;31.49;34.14;;
72805;Laerm;60920;48.748;19.142;2023-09-19T01:08:18;32.69;31.12;33.85;;
72805;Laerm;60920;48.748;19.142;2023-09-19T01:10:49;32.64;31.22;33.95;;
72805;Laerm;60920;48.748;19.142;2023-09-19T01:13:29;32.66;31.10;33.88;;
72805;Laerm;60920;48.748;19.142;2023-09-19T01:18:35;32.72;31.25;33.97;;
72805;Laerm;60920;48.748;19.142;2023-09-19T01:24:06;32.64;31.25;33.99;;
72805;Laerm;60920;48.748;19.142;2023-09-19T01:31:31;32.69;31.20;34.00;;
72805;Laerm;60920;48.748;19.142;2023-09-19T01:33:59;32.72;31.19;34.00;;
72805;Laerm;60920;48.748;19.142;2023-09-19T01:36:25;32.64;31.21;34.07;;
72805;Laerm;60920;48.748;19.142;2023-09-19T01:38:51;32.61;31.24;34.35;;
72805;Laerm;60920;48.748;19.142;2023-09-19T01:41:17;32.67;31.29;34.07;;
72805;Laerm;60920;48.748;19.142;2023-09-19T01:43:47;32.71;31.36;34.16;;
72805;Laerm;60920;48.748;19.142;2023-09-19T01:46:16;32.66;31.30;33.79;;
72805;Laerm;60920;48.748;19.142;2023-09-19T01:51:20;32.64;31.34;33.88;;
72805;Laerm;60920;48.748;19.142;2023-09-19T01:53:55;32.63;31.15;34.05;;
72805;Laerm;60920;48.748;19.142;2023-09-19T01:56:32;32.67;31.24;34.04;;
72805;Laerm;60920;48.748;19.142;2023-09-19T01:59:02;32.68;31.18;33.98;;
72805;Laerm;60920;48.748;19.142;2023-09-19T02:01:29;32.69;31.34;34.15;;
72805;Laerm;60920;48.748;19.142;2023-09-19T02:03:56;32.66;31.31;33.93;;
72805;Laerm;60920;48.748;19.142;2023-09-19T02:06:21;32.63;31.25;33.97;;
72805;Laerm;60920;48.748;19.142;2023-09-19T02:08:47;32.61;31.39;33.84;;
72805;Laerm;60920;48.748;19.142;2023-09-19T02:11:12;32.56;30.96;33.85;;
72805;Laerm;60920;48.748;19.142;2023-09-19T02:13:38;32.61;31.11;33.78;;
72805;Laerm;60920;48.748;19.142;2023-09-19T02:16:03;32.67;31.29;34.01;;
72805;Laerm;60920;48.748;19.142;2023-09-19T02:18:29;32.59;31.18;33.86;;
72805;Laerm;60920;48.748;19.142;2023-09-19T02:20:55;32.66;31.24;33.88;;
72805;Laerm;60920;48.748;19.142;2023-09-19T02:23:21;32.77;31.20;34.22;;
72805;Laerm;60920;48.748;19.142;2023-09-19T02:25:53;32.77;31.30;34.07;;
72805;Laerm;60920;48.748;19.142;2023-09-19T02:28:18;32.74;31.37;34.16;;
72805;Laerm;60920;48.748;19.142;2023-09-19T02:30:47;32.77;31.27;34.26;;
72805;Laerm;60920;48.748;19.142;2023-09-19T02:33:12;32.84;31.43;34.17;;
72805;Laerm;60920;48.748;19.142;2023-09-19T02:35:38;32.88;31.21;34.14;;
72805;Laerm;60920;48.748;19.142;2023-09-19T02:38:03;32.87;31.45;34.28;;
72805;Laerm;60920;48.748;19.142;2023-09-19T02:40:31;32.89;31.41;34.22;;
72805;Laerm;60920;48.748;19.142;2023-09-19T02:42:57;32.87;31.36;34.15;;
72805;Laerm;60920;48.748;19.142;2023-09-19T02:45:24;32.77;31.34;34.08;;
72805;Laerm;60920;48.748;19.142;2023-09-19T02:47:50;32.73;31.07;34.02;;
72805;Laerm;60920;48.748;19.142;2023-09-19T02:50:16;32.84;31.36;34.33;;
72805;Laerm;60920;48.748;19.142;2023-09-19T02:52:42;32.74;30.94;34.18;;
72805;Laerm;60920;48.748;19.142;2023-09-19T02:55:14;32.73;31.24;34.27;;
72805;Laerm;60920;48.748;19.142;2023-09-19T02:57:52;32.81;31.08;34.38;;
72805;Laerm;60920;48.748;19.142;2023-09-19T03:00:19;32.81;31.17;34.20;;
72805;Laerm;60920;48.748;19.142;2023-09-19T03:02:53;32.70;31.31;34.14;;
72805;Laerm;60920;48.748;19.142;2023-09-19T03:05:19;32.72;31.30;33.98;;
72805;Laerm;60920;48.748;19.142;2023-09-19T03:07:46;32.77;31.43;34.36;;
72805;Laerm;60920;48.748;19.142;2023-09-19T03:10:15;32.76;31.34;34.27;;
72805;Laerm;60920;48.748;19.142;2023-09-19T03:12:41;32.83;31.07;34.32;;
72805;Laerm;60920;48.748;19.142;2023-09-19T03:15:06;32.76;31.00;34.18;;
72805;Laerm;60920;48.748;19.142;2023-09-19T03:17:34;32.79;31.21;36.57;;
72805;Laerm;60920;48.748;19.142;2023-09-19T03:19:59;32.83;31.33;34.37;;
72805;Laerm;60920;48.748;19.142;2023-09-19T03:22:26;32.87;31.52;34.37;;
72805;Laerm;60920;48.748;19.142;2023-09-19T03:24:52;32.85;31.58;34.44;;
72805;Laerm;60920;48.748;19.142;2023-09-19T03:27:18;32.78;31.25;34.13;;
72805;Laerm;60920;48.748;19.142;2023-09-19T03:29:43;32.78;31.33;34.26;;
72805;Laerm;60920;48.748;19.142;2023-09-19T03:32:09;32.70;31.10;34.05;;
72805;Laerm;60920;48.748;19.142;2023-09-19T03:34:37;32.69;31.35;34.20;;
72805;Laerm;60920;48.748;19.142;2023-09-19T03:37:07;32.73;31.10;34.23;;
72805;Laerm;60920;48.748;19.142;2023-09-19T03:39:32;32.68;31.38;34.10;;
72805;Laerm;60920;48.748;19.142;2023-09-19T03:41:58;32.73;31.43;34.02;;
72805;Laerm;60920;48.748;19.142;2023-09-19T03:44:23;32.73;30.81;34.12;;
72805;Laerm;60920;48.748;19.142;2023-09-19T03:46:48;32.75;31.28;34.02;;
72805;Laerm;60920;48.748;19.142;2023-09-19T03:49:14;32.77;31.08;34.15;;
72805;Laerm;60920;48.748;19.142;2023-09-19T03:51:39;32.70;31.30;33.98;;
72805;Laerm;60920;48.748;19.142;2023-09-19T03:54:06;32.67;31.03;34.11;;
72805;Laerm;60920;48.748;19.142;2023-09-19T03:56:32;32.66;31.04;33.91;;
72805;Laerm;60920;48.748;19.142;2023-09-19T03:58:58;32.65;31.26;34.08;;
72805;Laerm;60920;48.748;19.142;2023-09-19T04:01:23;32.72;31.13;33.90;;
72805;Laerm;60920;48.748;19.142;2023-09-19T04:03:49;32.67;31.25;34.06;;
72805;Laerm;60920;48.748;19.142;2023-09-19T04:06:16;32.68;31.28;33.86;;
72805;Laerm;60920;48.748;19.142;2023-09-19T04:08:42;32.68;31.30;34.08;;
72805;Laerm;60920;48.748;19.142;2023-09-19T04:11:09;32.66;31.17;34.11;;
72805;Laerm;60920;48.748;19.142;2023-09-19T04:13:34;32.68;31.10;34.05;;
72805;Laerm;60920;48.748;19.142;2023-09-19T04:16:00;32.71;31.13;33.97;;
72805;Laerm;60920;48.748;19.142;2023-09-19T04:18:26;32.71;31.12;34.16;;
72805;Laerm;60920;48.748;19.142;2023-09-19T04:20:51;32.68;31.17;34.08;;
72805;Laerm;60920;48.748;19.142;2023-09-19T04:23:16;32.69;31.25;33.94;;
72805;Laerm;60920;48.748;19.142;2023-09-19T04:25:42;32.74;31.41;34.17;;
72805;Laerm;60920;48.748;19.142;2023-09-19T04:28:07;32.69;31.40;34.18;;
72805;Laerm;60920;48.748;19.142;2023-09-19T04:30:33;32.66;31.19;34.00;;
72805;Laerm;60920;48.748;19.142;2023-09-19T04:32:58;32.76;31.35;34.17;;
72805;Laerm;60920;48.748;19.142;2023-09-19T04:35:24;32.75;31.32;34.18;;
72805;Laerm;60920;48.748;19.142;2023-09-19T04:37:50;32.70;31.40;34.13;;
72805;Laerm;60920;48.748;19.142;2023-09-19T04:40:16;32.69;31.30;34.05;;
72805;Laerm;60920;48.748;19.142;2023-09-19T04:42:43;32.80;30.90;34.39;;
72805;Laerm;60920;48.748;19.142;2023-09-19T04:45:08;32.82;31.27;34.33;;
72805;Laerm;60920;48.748;19.142;2023-09-19T04:47:37;32.70;31.37;34.06;;
72805;Laerm;60920;48.748;19.142;2023-09-19T04:50:13;32.73;31.45;34.20;;
72805;Laerm;60920;48.748;19.142;2023-09-19T04:52:39;32.76;31.29;34.18;;
72805;Laerm;60920;48.748;19.142;2023-09-19T04:55:06;32.77;31.46;34.05;;
72805;Laerm;60920;48.748;19.142;2023-09-19T04:57:31;32.75;31.41;34.22;;
72805;Laerm;60920;48.748;19.142;2023-09-19T04:59:57;32.64;31.15;33.81;;
72805;Laerm;60920;48.748;19.142;2023-09-19T05:02:22;32.75;31.21;34.23;;
72805;Laerm;60920;48.748;19.142;2023-09-19T05:04:48;32.79;31.39;34.07;;
72805;Laerm;60920;48.748;19.142;2023-09-19T05:07:13;32.76;31.35;34.06;;
72805;Laerm;60920;48.748;19.142;2023-09-19T05:09:38;32.77;31.27;34.29;;
72805;Laerm;60920;48.748;19.142;2023-09-19T05:12:04;32.77;31.39;34.05;;
72805;Laerm;60920;48.748;19.142;2023-09-19T05:14:29;32.78;31.41;34.19;;
72805;Laerm;60920;48.748;19.142;2023-09-19T05:16:55;32.78;31.30;34.27;;
72805;Laerm;60920;48.748;19.142;2023-09-19T05:19:20;32.81;31.39;34.24;;
72805;Laerm;60920;48.748;19.142;2023-09-19T05:21:45;32.75;31.36;34.11;;
72805;Laerm;60920;48.748;19.142;2023-09-19T05:24:11;32.74;31.23;34.37;;
72805;Laerm;60920;48.748;19.142;2023-09-19T05:26:39;32.76;31.10;34.02;;
72805;Laerm;60920;48.748;19.142;2023-09-19T05:29:05;32.71;31.26;34.17;;
72805;Laerm;60920;48.748;19.142;2023-09-19T05:31:33;32.77;31.27;34.14;;
72805;Laerm;60920;48.748;19.142;2023-09-19T05:33:58;32.70;30.94;34.14;;
72805;Laerm;60920;48.748;19.142;2023-09-19T05:36:26;32.78;31.30;34.17;;
72805;Laerm;60920;48.748;19.142;2023-09-19T05:38:51;32.81;31.21;34.08;;
72805;Laerm;60920;48.748;19.142;2023-09-19T05:41:18;32.79;31.11;34.41;;
72805;Laerm;60920;48.748;19.142;2023-09-19T05:43:43;32.73;31.43;34.06;;
72805;Laerm;60920;48.748;19.142;2023-09-19T05:46:08;32.74;31.44;34.03;;
72805;Laerm;60920;48.748;19.142;2023-09-19T05:48:34;32.73;31.19;34.09;;
72805;Laerm;60920;48.748;19.142;2023-09-19T05:50:59;32.72;31.01;33.95;;
72805;Laerm;60920;48.748;19.142;2023-09-19T05:53:26;32.72;31.22;34.28;;
72805;Laerm;60920;48.748;19.142;2023-09-19T05:55:51;32.76;31.28;34.18;;
72805;Laerm;60920;48.748;19.142;2023-09-19T05:58:18;32.76;31.50;34.18;;
72805;Laerm;60920;48.748;19.142;2023-09-19T06:00:45;32.78;31.32;34.20;;
72805;Laerm;60920;48.748;19.142;2023-09-19T06:03:12;32.73;31.34;34.10;;
72805;Laerm;60920;48.748;19.142;2023-09-19T06:05:38;32.70;31.31;34.33;;
72805;Laerm;60920;48.748;19.142;2023-09-19T06:08:04;32.81;31.42;34.40;;
72805;Laerm;60920;48.748;19.142;2023-09-19T06:10:33;32.79;31.35;34.06;;
72805;Laerm;60920;48.748;19.142;2023-09-19T06:12:59;32.75;31.29;34.13;;
72805;Laerm;60920;48.748;19.142;2023-09-19T06:15:25;32.73;31.33;34.03;;
72805;Laerm;60920;48.748;19.142;2023-09-19T06:17:54;32.72;31.27;33.96;;
72805;Laerm;60920;48.748;19.142;2023-09-19T06:20:20;32.70;31.13;33.98;;
72805;Laerm;60920;48.748;19.142;2023-09-19T06:22:47;32.73;31.27;34.15;;
72805;Laerm;60920;48.748;19.142;2023-09-19T06:25:13;32.75;31.36;34.04;;
72805;Laerm;60920;48.748;19.142;2023-09-19T06:27:51;32.76;31.30;34.24;;
72805;Laerm;60920;48.748;19.142;2023-09-19T06:30:23;32.74;31.40;36.19;;
72805;Laerm;60920;48.748;19.142;2023-09-19T06:32:49;32.83;31.41;34.16;;
72805;Laerm;60920;48.748;19.142;2023-09-19T06:35:15;32.73;31.32;35.06;;
72805;Laerm;60920;48.748;19.142;2023-09-19T06:37:41;32.71;31.24;34.52;;
72805;Laerm;60920;48.748;19.142;2023-09-19T06:40:11;32.72;31.11;37.04;;
72805;Laerm;60920;48.748;19.142;2023-09-19T06:43:00;32.63;31.12;43.30;;
72805;Laerm;60920;48.748;19.142;2023-09-19T06:45:27;32.75;31.10;39.80;;
72805;Laerm;60920;48.748;19.142;2023-09-19T06:47:53;32.92;31.18;48.10;;
72805;Laerm;60920;48.748;19.142;2023-09-19T06:50:22;32.85;31.31;43.38;;
72805;Laerm;60920;48.748;19.142;2023-09-19T06:52:51;32.68;31.23;41.95;;
72805;Laerm;60920;48.748;19.142;2023-09-19T06:55:20;32.70;31.20;46.45;;
72805;Laerm;60920;48.748;19.142;2023-09-19T06:57:46;32.59;31.04;34.28;;
72805;Laerm;60920;48.748;19.142;2023-09-19T07:00:12;32.68;31.23;47.94;;
72805;Laerm;60920;48.748;19.142;2023-09-19T07:02:59;32.64;31.19;45.28;;
72805;Laerm;60920;48.748;19.142;2023-09-19T07:05:32;32.61;31.01;43.33;;
72805;Laerm;60920;48.748;19.142;2023-09-19T07:07:58;32.66;31.33;35.13;;
72805;Laerm;60920;48.748;19.142;2023-09-19T07:10:24;32.66;31.32;34.62;;
72805;Laerm;60920;48.748;19.142;2023-09-19T07:15:21;34.02;31.19;64.68;;
72805;Laerm;60920;48.748;19.142;2023-09-19T07:17:48;32.57;31.04;45.58;;
72805;Laerm;60920;48.748;19.142;2023-09-19T07:20:13;32.33;30.93;44.55;;
72805;Laerm;60920;48.748;19.142;2023-09-19T07:22:41;32.16;30.61;41.81;;
72805;Laerm;60920;48.748;19.142;2023-09-19T07:25:06;32.13;30.59;33.56;;
72805;Laerm;60920;48.748;19.142;2023-09-19T07:27:32;32.11;30.58;37.93;;
72805;Laerm;60920;48.748;19.142;2023-09-19T07:29:57;32.10;30.70;37.07;;
72805;Laerm;60920;48.748;19.142;2023-09-19T07:32:24;32.08;30.74;42.36;;
72805;Laerm;60920;48.748;19.142;2023-09-19T07:34:49;32.11;30.62;33.36;;
72805;Laerm;60920;48.748;19.142;2023-09-19T07:37:14;32.19;30.87;33.84;;
72805;Laerm;60920;48.748;19.142;2023-09-19T07:39:40;32.23;30.73;35.14;;
72805;Laerm;60920;48.748;19.142;2023-09-19T07:42:06;32.44;31.04;34.01;;
72805;Laerm;60920;48.748;19.142;2023-09-19T07:44:32;32.52;30.97;34.40;;
72805;Laerm;60920;48.748;19.142;2023-09-19T07:46:57;32.58;31.09;42.42;;
72805;Laerm;60920;48.748;19.142;2023-09-19T07:49:23;32.53;31.15;40.48;;
72805;Laerm;60920;48.748;19.142;2023-09-19T07:51:49;32.50;30.96;33.84;;
72805;Laerm;60920;48.748;19.142;2023-09-19T07:54:14;32.53;30.84;33.79;;
72805;Laerm;60920;48.748;19.142;2023-09-19T07:56:40;32.53;31.02;33.91;;
72805;Laerm;60920;48.748;19.142;2023-09-19T07:59:05;32.57;31.17;34.09;;
72805;Laerm;60920;48.748;19.142;2023-09-19T08:01:30;32.49;31.12;34.06;;
72805;Laerm;60920;48.748;19.142;2023-09-19T08:03:56;32.53;31.22;34.02;;
72805;Laerm;60920;48.748;19.142;2023-09-19T08:06:22;32.53;30.90;33.82;;
72805;Laerm;60920;48.748;19.142;2023-09-19T08:08:50;32.57;31.21;33.90;;
72805;Laerm;60920;48.748;19.142;2023-09-19T08:11:15;32.62;31.10;33.84;;
72805;Laerm;60920;48.748;19.142;2023-09-19T08:13:46;32.61;31.12;33.91;;
72805;Laerm;60920;48.748;19.142;2023-09-19T08:16:14;32.63;31.25;33.89;;
72805;Laerm;60920;48.748;19.142;2023-09-19T08:18:40;32.70;31.13;33.96;;
72805;Laerm;60920;48.748;19.142;2023-09-19T08:21:06;32.69;31.33;34.12;;
72805;Laerm;60920;48.748;19.142;2023-09-19T08:23:39;32.67;30.81;34.21;;
72805;Laerm;60920;48.748;19.142;2023-09-19T08:26:04;32.72;31.08;34.03;;
72805;Laerm;60920;48.748;19.142;2023-09-19T08:28:36;32.87;31.22;34.21;;
72805;Laerm;60920;48.748;19.142;2023-09-19T08:31:02;32.80;31.14;34.09;;
72805;Laerm;60920;48.748;19.142;2023-09-19T08:33:29;32.83;31.41;34.30;;
72805;Laerm;60920;48.748;19.142;2023-09-19T08:35:55;32.67;31.08;34.08;;
72805;Laerm;60920;48.748;19.142;2023-09-19T08:38:21;32.55;31.15;34.05;;
72805;Laerm;60920;48.748;19.142;2023-09-19T08:40:46;32.65;30.82;34.21;;
72805;Laerm;60920;48.748;19.142;2023-09-19T08:43:11;32.83;31.28;34.39;;
72805;Laerm;60920;48.748;19.142;2023-09-19T08:45:37;32.80;31.31;34.25;;
72805;Laerm;60920;48.748;19.142;2023-09-19T08:48:37;32.77;31.18;34.28;;
72805;Laerm;60920;48.748;19.142;2023-09-19T08:50:56;32.77;31.24;34.39;;
72805;Laerm;60920;48.748;19.142;2023-09-19T08:55:54;32.73;31.05;34.32;;
72805;Laerm;60920;48.748;19.142;2023-09-19T08:58:23;32.60;31.23;33.89;;
72805;Laerm;60920;48.748;19.142;2023-09-19T09:00:52;32.59;31.07;33.90;;
72805;Laerm;60920;48.748;19.142;2023-09-19T09:03:19;32.67;31.03;33.95;;
72805;Laerm;60920;48.748;19.142;2023-09-19T09:05:45;32.78;31.30;34.19;;
72805;Laerm;60920;48.748;19.142;2023-09-19T09:08:11;32.77;31.42;34.17;;
72805;Laerm;60920;48.748;19.142;2023-09-19T09:10:37;32.70;31.35;34.02;;
72805;Laerm;60920;48.748;19.142;2023-09-19T09:13:03;32.83;31.39;34.44;;
72805;Laerm;60920;48.748;19.142;2023-09-19T09:15:29;32.82;31.31;34.56;;
72805;Laerm;60920;48.748;19.142;2023-09-19T09:17:57;32.69;31.38;34.09;;
72805;Laerm;60920;48.748;19.142;2023-09-19T09:20:23;32.67;31.33;33.95;;
72805;Laerm;60920;48.748;19.142;2023-09-19T09:22:52;32.56;31.21;33.89;;
72805;Laerm;60920;48.748;19.142;2023-09-19T09:25:18;32.59;30.92;33.86;;
72805;Laerm;60920;48.748;19.142;2023-09-19T09:27:45;32.65;31.26;34.05;;
72805;Laerm;60920;48.748;19.142;2023-09-19T09:30:15;32.61;31.22;34.09;;
72805;Laerm;60920;48.748;19.142;2023-09-19T09:33:10;32.49;30.80;34.19;;
72805;Laerm;60920;48.748;19.142;2023-09-19T09:35:36;32.26;30.94;33.69;;
72805;Laerm;60920;48.748;19.142;2023-09-19T09:38:01;32.16;30.69;33.60;;
72805;Laerm;60920;48.748;19.142;2023-09-19T09:41:06;32.29;30.41;33.87;;
72805;Laerm;60920;48.748;19.142;2023-09-19T09:43:45;32.28;31.07;34.01;;
72805;Laerm;60920;48.748;19.142;2023-09-19T09:46:15;32.34;30.86;33.64;;
72805;Laerm;60920;48.748;19.142;2023-09-19T09:49:04;32.49;31.12;33.97;;
72805;Laerm;60920;48.748;19.142;2023-09-19T09:51:45;32.59;31.09;33.72;;
72805;Laerm;60920;48.748;19.142;2023-09-19T09:54:22;32.71;31.11;34.25;;
72805;Laerm;60920;48.748;19.142;2023-09-19T09:56:52;32.79;31.44;34.10;;
72805;Laerm;60920;48.748;19.142;2023-09-19T09:59:18;32.86;31.22;34.17;;
72805;Laerm;60920;48.748;19.142;2023-09-19T10:01:47;32.91;31.48;34.46;;
72805;Laerm;60920;48.748;19.142;2023-09-19T10:04:21;32.85;31.34;34.39;;
72805;Laerm;60920;48.748;19.142;2023-09-19T10:06:54;32.84;31.34;34.21;;
72805;Laerm;60920;48.748;19.142;2023-09-19T10:09:19;32.89;31.51;34.13;;
72805;Laerm;60920;48.748;19.142;2023-09-19T10:11:59;32.82;31.40;34.01;;
72805;Laerm;60920;48.748;19.142;2023-09-19T10:14:29;32.79;31.11;34.07;;
72805;Laerm;60920;48.748;19.142;2023-09-19T10:16:56;32.65;31.10;34.02;;
72805;Laerm;60920;48.748;19.142;2023-09-19T10:19:40;32.68;31.31;34.03;;
72805;Laerm;60920;48.748;19.142;2023-09-19T10:22:11;32.60;31.17;34.06;;
72805;Laerm;60920;48.748;19.142;2023-09-19T10:24:38;32.55;30.92;36.17;;
72805;Laerm;60920;48.748;19.142;2023-09-19T10:27:06;32.44;30.94;34.15;;
72805;Laerm;60920;48.748;19.142;2023-09-19T10:29:33;32.31;30.85;33.52;;
72805;Laerm;60920;48.748;19.142;2023-09-19T10:32:01;32.16;30.63;33.86;;
72805;Laerm;60920;48.748;19.142;2023-09-19T10:34:31;32.33;30.65;33.59;;
72805;Laerm;60920;48.748;19.142;2023-09-19T10:36:59;32.38;31.02;33.63;;
72805;Laerm;60920;48.748;19.142;2023-09-19T10:39:27;32.46;31.04;33.76;;
72805;Laerm;60920;48.748;19.142;2023-09-19T10:41:57;32.52;30.90;33.89;;
72805;Laerm;60920;48.748;19.142;2023-09-19T10:44:27;32.45;31.02;33.76;;
72805;Laerm;60920;48.748;19.142;2023-09-19T10:46:57;32.23;30.88;33.61;;
72805;Laerm;60920;48.748;19.142;2023-09-19T10:49:22;32.34;30.79;33.64;;
72805;Laerm;60920;48.748;19.142;2023-09-19T10:51:50;32.45;31.15;33.65;;
72805;Laerm;60920;48.748;19.142;2023-09-19T10:54:17;32.42;31.19;33.66;;
72805;Laerm;60920;48.748;19.142;2023-09-19T10:56:48;32.43;30.98;33.86;;
72805;Laerm;60920;48.748;19.142;2023-09-19T10:59:15;32.54;31.21;33.86;;
72805;Laerm;60920;48.748;19.142;2023-09-19T11:01:44;32.63;31.10;33.98;;
72805;Laerm;60920;48.748;19.142;2023-09-19T11:04:31;32.57;31.04;34.00;;
72805;Laerm;60920;48.748;19.142;2023-09-19T11:07:12;32.45;31.10;33.65;;
72805;Laerm;60920;48.748;19.142;2023-09-19T11:09:48;32.52;31.07;33.84;;
72805;Laerm;60920;48.748;19.142;2023-09-19T11:14:54;32.33;30.98;33.53;;
72805;Laerm;60920;48.748;19.142;2023-09-19T11:30:52;32.34;30.76;33.85;;
72805;Laerm;60920;48.748;19.142;2023-09-19T11:33:28;31.99;30.60;33.19;;
72805;Laerm;60920;48.748;19.142;2023-09-19T11:36:07;31.68;30.21;33.18;;
72805;Laerm;60920;48.748;19.142;2023-09-19T11:44:30;31.58;30.18;32.98;;
72805;Laerm;60920;48.748;19.142;2023-09-19T11:49:17;31.35;30.01;32.67;;
72805;Laerm;60920;48.748;19.142;2023-09-19T11:51:48;31.34;30.01;32.66;;
72805;Laerm;60920;48.748;19.142;2023-09-19T11:54:15;31.38;30.04;32.54;;
72805;Laerm;60920;48.748;19.142;2023-09-19T11:56:44;31.39;30.01;32.74;;
72805;Laerm;60920;48.748;19.142;2023-09-19T11:59:10;31.30;29.70;32.94;;
72805;Laerm;60920;48.748;19.142;2023-09-19T12:01:36;31.17;29.70;32.52;;
72805;Laerm;60920;48.748;19.142;2023-09-19T12:04:03;31.10;29.48;32.41;;
72805;Laerm;60920;48.748;19.142;2023-09-19T12:06:30;31.01;29.46;32.26;;
72805;Laerm;60920;48.748;19.142;2023-09-19T12:08:55;31.05;29.41;32.32;;
72805;Laerm;60920;48.748;19.142;2023-09-19T12:11:22;31.22;29.33;32.62;;
72805;Laerm;60920;48.748;19.142;2023-09-19T12:13:48;31.17;29.89;32.48;;
72805;Laerm;60920;48.748;19.142;2023-09-19T12:18:40;30.91;29.35;32.41;;
72805;Laerm;60920;48.748;19.142;2023-09-19T12:21:20;30.72;29.42;32.04;;
72805;Laerm;60920;48.748;19.142;2023-09-19T12:26:45;30.88;29.46;32.26;;
72805;Laerm;60920;48.748;19.142;2023-09-19T12:29:17;31.04;29.54;32.71;;
72805;Laerm;60920;48.748;19.142;2023-09-19T12:31:53;31.06;29.56;32.29;;
72805;Laerm;60920;48.748;19.142;2023-09-19T12:34:21;31.01;29.65;32.69;;
72805;Laerm;60920;48.748;19.142;2023-09-19T12:36:47;30.95;29.57;32.34;;
72805;Laerm;60920;48.748;19.142;2023-09-19T12:39:23;30.98;29.72;32.48;;
72805;Laerm;60920;48.748;19.142;2023-09-19T12:41:50;31.08;29.61;32.62;;
72805;Laerm;60920;48.748;19.142;2023-09-19T12:44:16;31.20;29.68;32.49;;
72805;Laerm;60920;48.748;19.142;2023-09-19T12:46:43;31.20;29.92;32.51;;
72805;Laerm;60920;48.748;19.142;2023-09-19T12:49:16;31.24;29.88;32.83;;
72805;Laerm;60920;48.748;19.142;2023-09-19T12:51:42;31.22;29.81;32.59;;
72805;Laerm;60920;48.748;19.142;2023-09-19T12:54:08;31.24;29.83;32.44;;
72805;Laerm;60920;48.748;19.142;2023-09-19T12:56:42;31.20;29.83;33.51;;
72805;Laerm;60920;48.748;19.142;2023-09-19T12:59:11;31.11;29.56;32.41;;
72805;Laerm;60920;48.748;19.142;2023-09-19T13:01:38;31.27;29.94;32.51;;
72805;Laerm;60920;48.748;19.142;2023-09-19T13:06:43;31.21;29.50;32.49;;
72805;Laerm;60920;48.748;19.142;2023-09-19T13:09:09;31.24;29.74;32.51;;
72805;Laerm;60920;48.748;19.142;2023-09-19T13:11:36;31.35;29.86;32.62;;
72805;Laerm;60920;48.748;19.142;2023-09-19T13:22:00;31.27;29.84;32.69;;
72805;Laerm;60920;48.748;19.142;2023-09-19T13:24:26;31.19;29.85;32.52;;
72805;Laerm;60920;48.748;19.142;2023-09-19T13:26:52;31.16;29.56;32.66;;
72805;Laerm;60920;48.748;19.142;2023-09-19T13:29:17;31.33;29.96;32.66;;
72805;Laerm;60920;48.748;19.142;2023-09-19T13:31:50;31.35;29.87;32.61;;
72805;Laerm;60920;48.748;19.142;2023-09-19T13:34:16;31.28;29.97;32.66;;
72805;Laerm;60920;48.748;19.142;2023-09-19T13:36:42;31.23;29.79;32.51;;
72805;Laerm;60920;48.748;19.142;2023-09-19T13:39:08;31.13;29.87;32.43;;
72805;Laerm;60920;48.748;19.142;2023-09-19T13:41:34;31.05;29.46;32.59;;
72805;Laerm;60920;48.748;19.142;2023-09-19T13:44:02;31.09;29.43;32.44;;
72805;Laerm;60920;48.748;19.142;2023-09-19T13:46:27;31.15;29.81;32.58;;
72805;Laerm;60920;48.748;19.142;2023-09-19T13:48:52;31.24;29.72;32.70;;
72805;Laerm;60920;48.748;19.142;2023-09-19T13:51:20;31.18;29.72;32.43;;
72805;Laerm;60920;48.748;19.142;2023-09-19T13:53:46;31.13;29.65;32.49;;
72805;Laerm;60920;48.748;19.142;2023-09-19T13:56:12;31.17;29.50;32.30;;
72805;Laerm;60920;48.748;19.142;2023-09-19T13:58:38;31.02;29.59;32.46;;
72805;Laerm;60920;48.748;19.142;2023-09-19T14:01:03;31.09;29.67;32.59;;
72805;Laerm;60920;48.748;19.142;2023-09-19T14:03:29;31.10;29.72;32.73;;
72805;Laerm;60920;48.748;19.142;2023-09-19T14:05:54;31.14;29.70;32.49;;
72805;Laerm;60920;48.748;19.142;2023-09-19T14:08:19;31.26;29.73;32.59;;
72805;Laerm;60920;48.748;19.142;2023-09-19T14:10:45;31.27;29.89;32.42;;
72805;Laerm;60920;48.748;19.142;2023-09-19T14:13:11;31.40;30.05;32.69;;
72805;Laerm;60920;48.748;19.142;2023-09-19T14:15:38;31.34;29.91;32.65;;
72805;Laerm;60920;48.748;19.142;2023-09-19T14:18:04;31.51;30.15;33.28;;
72805;Laerm;60920;48.748;19.142;2023-09-19T14:20:29;31.34;29.95;33.14;;
72805;Laerm;60920;48.748;19.142;2023-09-19T14:22:56;31.41;30.08;32.70;;
72805;Laerm;60920;48.748;19.142;2023-09-19T14:25:23;31.44;30.06;32.89;;
72805;Laerm;60920;48.748;19.142;2023-09-19T14:27:49;31.42;30.08;33.01;;
72805;Laerm;60920;48.748;19.142;2023-09-19T14:30:15;31.45;29.93;32.69;;
72805;Laerm;60920;48.748;19.142;2023-09-19T14:32:40;31.32;29.91;32.59;;